sensor_id;sensor_type;location;lat;lon;timestamp;P1;durP1;ratioP1;P2;durP2;ratioP2
69625;SDS011;56847;51.984;5.088;2022-12-18T00:01:48;91.43;;;28.50;;
69625;SDS011;56847;51.984;5.088;2022-12-18T00:04:23;70.35;;;27.83;;
69625;SDS011;56847;51.984;5.088;2022-12-18T00:06:51;80.00;;;29.05;;
69625;SDS011;56847;51.984;5.088;2022-12-18T00:09:19;128.03;;;28.37;;
69625;SDS011;56847;51.984;5.088;2022-12-18T00:11:46;104.68;;;28.40;;
69625;SDS011;56847;51.984;5.088;2022-12-18T00:14:13;73.60;;;27.20;;
69625;SDS011;56847;51.984;5.088;2022-12-18T00:16:42;81.43;;;24.90;;
69625;SDS011;56847;51.984;5.088;2022-12-18T00:19:11;98.88;;;27.23;;
69625;SDS011;56847;51.984;5.088;2022-12-18T00:21:39;68.53;;;27.87;;
69625;SDS011;56847;51.984;5.088;2022-12-18T00:24:08;69.88;;;25.98;;
69625;SDS011;56847;51.984;5.088;2022-12-18T00:26:36;76.43;;;27.85;;
69625;SDS011;56847;51.984;5.088;2022-12-18T00:29:07;83.75;;;29.83;;
69625;SDS011;56847;51.984;5.088;2022-12-18T00:31:37;126.78;;;28.02;;
69625;SDS011;56847;51.984;5.088;2022-12-18T00:34:12;91.20;;;27.67;;
69625;SDS011;56847;51.984;5.088;2022-12-18T00:36:40;98.05;;;28.88;;
69625;SDS011;56847;51.984;5.088;2022-12-18T00:39:08;86.07;;;27.05;;
69625;SDS011;56847;51.984;5.088;2022-12-18T00:41:43;132.88;;;29.42;;
69625;SDS011;56847;51.984;5.088;2022-12-18T00:44:30;75.53;;;25.33;;
69625;SDS011;56847;51.984;5.088;2022-12-18T00:47:05;86.33;;;28.87;;
69625;SDS011;56847;51.984;5.088;2022-12-18T00:49:38;115.80;;;28.00;;
69625;SDS011;56847;51.984;5.088;2022-12-18T00:52:13;156.70;;;29.08;;
69625;SDS011;56847;51.984;5.088;2022-12-18T00:54:41;251.55;;;27.65;;
69625;SDS011;56847;51.984;5.088;2022-12-18T00:57:21;147.75;;;27.23;;
69625;SDS011;56847;51.984;5.088;2022-12-18T00:59:59;85.37;;;26.73;;
69625;SDS011;56847;51.984;5.088;2022-12-18T01:02:37;112.43;;;27.92;;
69625;SDS011;56847;51.984;5.088;2022-12-18T01:05:09;72.32;;;27.35;;
69625;SDS011;56847;51.984;5.088;2022-12-18T01:07:41;76.90;;;26.25;;
69625;SDS011;56847;51.984;5.088;2022-12-18T01:10:18;102.45;;;27.65;;
69625;SDS011;56847;51.984;5.088;2022-12-18T01:12:55;76.67;;;27.63;;
69625;SDS011;56847;51.984;5.088;2022-12-18T01:15:28;99.22;;;28.30;;
69625;SDS011;56847;51.984;5.088;2022-12-18T01:17:58;72.65;;;26.73;;
69625;SDS011;56847;51.984;5.088;2022-12-18T01:20:30;78.88;;;28.63;;
69625;SDS011;56847;51.984;5.088;2022-12-18T01:23:07;70.95;;;27.27;;
69625;SDS011;56847;51.984;5.088;2022-12-18T01:25:39;94.23;;;27.40;;
69625;SDS011;56847;51.984;5.088;2022-12-18T01:28:23;74.90;;;25.85;;
69625;SDS011;56847;51.984;5.088;2022-12-18T01:33:57;74.13;;;27.33;;
69625;SDS011;56847;51.984;5.088;2022-12-18T01:36:58;88.13;;;26.95;;
69625;SDS011;56847;51.984;5.088;2022-12-18T01:40:15;87.33;;;23.80;;
69625;SDS011;56847;51.984;5.088;2022-12-18T01:43:16;83.78;;;27.05;;
69625;SDS011;56847;51.984;5.088;2022-12-18T01:46:02;91.57;;;25.70;;
69625;SDS011;56847;51.984;5.088;2022-12-18T01:48:51;75.70;;;26.88;;
69625;SDS011;56847;51.984;5.088;2022-12-18T01:51:36;88.88;;;26.90;;
69625;SDS011;56847;51.984;5.088;2022-12-18T01:54:09;75.17;;;25.63;;
69625;SDS011;56847;51.984;5.088;2022-12-18T01:57:16;61.95;;;24.75;;
69625;SDS011;56847;51.984;5.088;2022-12-18T02:00:18;60.15;;;24.80;;
69625;SDS011;56847;51.984;5.088;2022-12-18T02:03:11;67.20;;;26.00;;
69625;SDS011;56847;51.984;5.088;2022-12-18T02:10:13;69.83;;;25.57;;
69625;SDS011;56847;51.984;5.088;2022-12-18T02:16:41;64.07;;;26.40;;
69625;SDS011;56847;51.984;5.088;2022-12-18T02:19:47;71.72;;;24.98;;
69625;SDS011;56847;51.984;5.088;2022-12-18T02:27:05;73.30;;;24.97;;
69625;SDS011;56847;51.984;5.088;2022-12-18T02:33:06;71.07;;;26.67;;
69625;SDS011;56847;51.984;5.088;2022-12-18T02:36:11;74.85;;;26.33;;
69625;SDS011;56847;51.984;5.088;2022-12-18T02:39:27;71.57;;;27.77;;
69625;SDS011;56847;51.984;5.088;2022-12-18T02:42:35;73.90;;;26.53;;
69625;SDS011;56847;51.984;5.088;2022-12-18T02:45:33;73.55;;;25.70;;
69625;SDS011;56847;51.984;5.088;2022-12-18T02:52:05;67.38;;;27.05;;
69625;SDS011;56847;51.984;5.088;2022-12-18T02:58:23;72.33;;;27.00;;
69625;SDS011;56847;51.984;5.088;2022-12-18T03:01:59;75.05;;;27.90;;
69625;SDS011;56847;51.984;5.088;2022-12-18T03:08:54;72.28;;;26.98;;
69625;SDS011;56847;51.984;5.088;2022-12-18T03:14:40;67.00;;;27.10;;
69625;SDS011;56847;51.984;5.088;2022-12-18T03:17:30;70.20;;;26.55;;
69625;SDS011;56847;51.984;5.088;2022-12-18T03:20:25;71.22;;;26.73;;
69625;SDS011;56847;51.984;5.088;2022-12-18T03:23:24;59.30;;;23.65;;
69625;SDS011;56847;51.984;5.088;2022-12-18T03:38:26;63.55;;;24.63;;
69625;SDS011;56847;51.984;5.088;2022-12-18T03:56:40;58.17;;;24.17;;
69625;SDS011;56847;51.984;5.088;2022-12-18T03:59:25;64.27;;;23.33;;
69625;SDS011;56847;51.984;5.088;2022-12-18T04:02:31;56.13;;;22.30;;
69625;SDS011;56847;51.984;5.088;2022-12-18T04:05:44;60.38;;;25.08;;
69625;SDS011;56847;51.984;5.088;2022-12-18T04:08:31;60.60;;;24.65;;
69625;SDS011;56847;51.984;5.088;2022-12-18T04:11:33;51.92;;;24.50;;
69625;SDS011;56847;51.984;5.088;2022-12-18T04:14:20;58.50;;;24.57;;
69625;SDS011;56847;51.984;5.088;2022-12-18T04:16:52;60.40;;;24.52;;
69625;SDS011;56847;51.984;5.088;2022-12-18T06:01:48;43.40;;;20.97;;
69625;SDS011;56847;51.984;5.088;2022-12-18T06:04:15;43.72;;;19.92;;
69625;SDS011;56847;51.984;5.088;2022-12-18T06:06:42;38.17;;;18.35;;
69625;SDS011;56847;51.984;5.088;2022-12-18T06:09:09;44.17;;;19.65;;
69625;SDS011;56847;51.984;5.088;2022-12-18T06:11:36;44.15;;;19.02;;
69625;SDS011;56847;51.984;5.088;2022-12-18T06:14:05;43.57;;;17.93;;
69625;SDS011;56847;51.984;5.088;2022-12-18T06:16:32;36.22;;;17.05;;
69625;SDS011;56847;51.984;5.088;2022-12-18T06:19:03;32.50;;;17.02;;
69625;SDS011;56847;51.984;5.088;2022-12-18T06:21:32;39.95;;;18.02;;
69625;SDS011;56847;51.984;5.088;2022-12-18T06:23:59;39.17;;;18.65;;
69625;SDS011;56847;51.984;5.088;2022-12-18T06:26:27;34.50;;;18.43;;
69625;SDS011;56847;51.984;5.088;2022-12-18T06:28:54;32.90;;;16.63;;
69625;SDS011;56847;51.984;5.088;2022-12-18T06:31:21;38.03;;;17.85;;
69625;SDS011;56847;51.984;5.088;2022-12-18T06:33:48;38.17;;;17.13;;
69625;SDS011;56847;51.984;5.088;2022-12-18T06:36:15;35.30;;;17.35;;
69625;SDS011;56847;51.984;5.088;2022-12-18T06:38:43;37.60;;;17.27;;
69625;SDS011;56847;51.984;5.088;2022-12-18T06:41:11;38.65;;;17.13;;
69625;SDS011;56847;51.984;5.088;2022-12-18T06:43:41;32.22;;;16.10;;
69625;SDS011;56847;51.984;5.088;2022-12-18T06:46:08;34.85;;;15.88;;
69625;SDS011;56847;51.984;5.088;2022-12-18T06:48:36;37.80;;;17.45;;
69625;SDS011;56847;51.984;5.088;2022-12-18T06:51:04;32.50;;;15.47;;
69625;SDS011;56847;51.984;5.088;2022-12-18T06:53:31;31.50;;;15.63;;
69625;SDS011;56847;51.984;5.088;2022-12-18T06:56:04;32.45;;;17.02;;
69625;SDS011;56847;51.984;5.088;2022-12-18T06:58:36;30.98;;;15.85;;
69625;SDS011;56847;51.984;5.088;2022-12-18T07:01:04;33.88;;;16.88;;
69625;SDS011;56847;51.984;5.088;2022-12-18T07:03:33;29.83;;;15.57;;
69625;SDS011;56847;51.984;5.088;2022-12-18T07:06:00;34.17;;;16.38;;
69625;SDS011;56847;51.984;5.088;2022-12-18T07:08:28;34.55;;;16.63;;
69625;SDS011;56847;51.984;5.088;2022-12-18T07:10:59;31.58;;;15.45;;
69625;SDS011;56847;51.984;5.088;2022-12-18T07:13:29;29.17;;;15.43;;
69625;SDS011;56847;51.984;5.088;2022-12-18T07:16:02;28.73;;;15.37;;
69625;SDS011;56847;51.984;5.088;2022-12-18T07:18:56;30.40;;;14.48;;
69625;SDS011;56847;51.984;5.088;2022-12-18T07:21:23;30.40;;;14.98;;
69625;SDS011;56847;51.984;5.088;2022-12-18T07:23:54;32.95;;;16.40;;
69625;SDS011;56847;51.984;5.088;2022-12-18T07:26:21;29.92;;;15.20;;
69625;SDS011;56847;51.984;5.088;2022-12-18T07:28:48;29.43;;;15.60;;
69625;SDS011;56847;51.984;5.088;2022-12-18T07:31:20;31.60;;;15.57;;
69625;SDS011;56847;51.984;5.088;2022-12-18T07:33:49;35.42;;;16.50;;
69625;SDS011;56847;51.984;5.088;2022-12-18T07:36:17;29.23;;;15.45;;
69625;SDS011;56847;51.984;5.088;2022-12-18T07:38:46;26.67;;;15.70;;
69625;SDS011;56847;51.984;5.088;2022-12-18T07:41:15;29.63;;;15.17;;
69625;SDS011;56847;51.984;5.088;2022-12-18T07:43:42;29.92;;;15.25;;
69625;SDS011;56847;51.984;5.088;2022-12-18T07:46:10;32.72;;;16.60;;
69625;SDS011;56847;51.984;5.088;2022-12-18T07:48:40;29.73;;;14.75;;
69625;SDS011;56847;51.984;5.088;2022-12-18T07:51:09;32.28;;;16.10;;
69625;SDS011;56847;51.984;5.088;2022-12-18T07:53:39;35.33;;;14.83;;
69625;SDS011;56847;51.984;5.088;2022-12-18T07:56:10;32.50;;;15.70;;
69625;SDS011;56847;51.984;5.088;2022-12-18T07:58:57;33.03;;;15.90;;
69625;SDS011;56847;51.984;5.088;2022-12-18T08:01:25;24.50;;;14.00;;
69625;SDS011;56847;51.984;5.088;2022-12-18T08:03:55;29.73;;;15.93;;
69625;SDS011;56847;51.984;5.088;2022-12-18T08:06:23;29.67;;;14.37;;
69625;SDS011;56847;51.984;5.088;2022-12-18T08:08:54;28.33;;;14.23;;
69625;SDS011;56847;51.984;5.088;2022-12-18T08:11:22;29.55;;;14.88;;
69625;SDS011;56847;51.984;5.088;2022-12-18T08:13:51;27.90;;;14.93;;
69625;SDS011;56847;51.984;5.088;2022-12-18T08:16:18;27.42;;;15.15;;
69625;SDS011;56847;51.984;5.088;2022-12-18T08:18:46;29.27;;;15.27;;
69625;SDS011;56847;51.984;5.088;2022-12-18T08:21:21;28.67;;;15.70;;
69625;SDS011;56847;51.984;5.088;2022-12-18T08:23:50;25.52;;;14.57;;
69625;SDS011;56847;51.984;5.088;2022-12-18T08:26:21;28.75;;;14.68;;
69625;SDS011;56847;51.984;5.088;2022-12-18T08:28:48;28.73;;;15.23;;
69625;SDS011;56847;51.984;5.088;2022-12-18T08:31:16;34.30;;;14.40;;
69625;SDS011;56847;51.984;5.088;2022-12-18T08:33:55;30.90;;;14.73;;
69625;SDS011;56847;51.984;5.088;2022-12-18T08:36:23;31.05;;;16.33;;
69625;SDS011;56847;51.984;5.088;2022-12-18T08:38:53;29.95;;;14.45;;
69625;SDS011;56847;51.984;5.088;2022-12-18T08:41:20;30.45;;;14.32;;
69625;SDS011;56847;51.984;5.088;2022-12-18T08:43:49;27.83;;;15.40;;
69625;SDS011;56847;51.984;5.088;2022-12-18T08:46:37;27.58;;;15.20;;
69625;SDS011;56847;51.984;5.088;2022-12-18T08:49:05;25.73;;;15.40;;
69625;SDS011;56847;51.984;5.088;2022-12-18T08:51:33;28.13;;;14.75;;
69625;SDS011;56847;51.984;5.088;2022-12-18T08:54:00;32.38;;;16.10;;
69625;SDS011;56847;51.984;5.088;2022-12-18T08:56:29;30.60;;;15.80;;
69625;SDS011;56847;51.984;5.088;2022-12-18T08:58:56;33.08;;;15.75;;
69625;SDS011;56847;51.984;5.088;2022-12-18T09:01:24;30.77;;;15.82;;
69625;SDS011;56847;51.984;5.088;2022-12-18T09:03:51;25.92;;;14.23;;
69625;SDS011;56847;51.984;5.088;2022-12-18T09:06:19;32.47;;;15.25;;
69625;SDS011;56847;51.984;5.088;2022-12-18T09:08:47;27.13;;;14.93;;
69625;SDS011;56847;51.984;5.088;2022-12-18T09:11:18;30.38;;;14.65;;
69625;SDS011;56847;51.984;5.088;2022-12-18T09:13:50;29.38;;;15.50;;
69625;SDS011;56847;51.984;5.088;2022-12-18T09:16:18;27.83;;;16.55;;
69625;SDS011;56847;51.984;5.088;2022-12-18T09:18:46;31.38;;;16.42;;
69625;SDS011;56847;51.984;5.088;2022-12-18T09:21:18;27.83;;;14.90;;
69625;SDS011;56847;51.984;5.088;2022-12-18T09:23:50;25.85;;;13.50;;
69625;SDS011;56847;51.984;5.088;2022-12-18T09:26:17;29.20;;;15.43;;
69625;SDS011;56847;51.984;5.088;2022-12-18T09:28:45;28.00;;;14.75;;
69625;SDS011;56847;51.984;5.088;2022-12-18T09:31:12;28.67;;;16.48;;
69625;SDS011;56847;51.984;5.088;2022-12-18T09:33:41;28.13;;;15.17;;
69625;SDS011;56847;51.984;5.088;2022-12-18T09:36:09;28.02;;;15.32;;
69625;SDS011;56847;51.984;5.088;2022-12-18T09:38:42;35.00;;;16.83;;
69625;SDS011;56847;51.984;5.088;2022-12-18T09:49:50;27.05;;;15.10;;
69625;SDS011;56847;51.984;5.088;2022-12-18T09:52:28;32.20;;;16.23;;
69625;SDS011;56847;51.984;5.088;2022-12-18T09:55:22;28.55;;;15.07;;
69625;SDS011;56847;51.984;5.088;2022-12-18T10:00:36;30.20;;;14.60;;
69625;SDS011;56847;51.984;5.088;2022-12-18T10:03:08;31.48;;;15.50;;
69625;SDS011;56847;51.984;5.088;2022-12-18T10:08:39;28.25;;;14.73;;
69625;SDS011;56847;51.984;5.088;2022-12-18T10:14:14;33.93;;;15.23;;
69625;SDS011;56847;51.984;5.088;2022-12-18T10:25:05;26.88;;;14.85;;
69625;SDS011;56847;51.984;5.088;2022-12-18T10:27:51;27.03;;;14.10;;
69625;SDS011;56847;51.984;5.088;2022-12-18T10:30:22;27.50;;;14.43;;
69625;SDS011;56847;51.984;5.088;2022-12-18T10:32:51;26.85;;;14.57;;
69625;SDS011;56847;51.984;5.088;2022-12-18T10:35:20;27.30;;;15.13;;
69625;SDS011;56847;51.984;5.088;2022-12-18T10:40:56;24.93;;;13.40;;
69625;SDS011;56847;51.984;5.088;2022-12-18T10:43:30;25.63;;;13.88;;
69625;SDS011;56847;51.984;5.088;2022-12-18T10:48:36;24.35;;;14.68;;
69625;SDS011;56847;51.984;5.088;2022-12-18T10:54:21;25.90;;;14.77;;
69625;SDS011;56847;51.984;5.088;2022-12-18T10:56:48;25.40;;;15.73;;
69625;SDS011;56847;51.984;5.088;2022-12-18T10:59:16;24.75;;;14.75;;
69625;SDS011;56847;51.984;5.088;2022-12-18T11:01:51;29.08;;;15.00;;
69625;SDS011;56847;51.984;5.088;2022-12-18T11:04:30;28.50;;;14.27;;
69625;SDS011;56847;51.984;5.088;2022-12-18T11:07:05;27.80;;;15.10;;
69625;SDS011;56847;51.984;5.088;2022-12-18T11:09:35;28.92;;;14.88;;
69625;SDS011;56847;51.984;5.088;2022-12-18T11:12:05;28.10;;;15.40;;
69625;SDS011;56847;51.984;5.088;2022-12-18T11:14:45;24.88;;;13.75;;
69625;SDS011;56847;51.984;5.088;2022-12-18T11:17:29;26.20;;;15.30;;
69625;SDS011;56847;51.984;5.088;2022-12-18T11:20:05;33.57;;;14.63;;
69625;SDS011;56847;51.984;5.088;2022-12-18T11:22:35;26.30;;;14.80;;
69625;SDS011;56847;51.984;5.088;2022-12-18T11:27:59;24.02;;;13.95;;
69625;SDS011;56847;51.984;5.088;2022-12-18T11:30:29;32.65;;;16.20;;
69625;SDS011;56847;51.984;5.088;2022-12-18T11:33:20;26.40;;;14.97;;
69625;SDS011;56847;51.984;5.088;2022-12-18T11:35:52;30.27;;;14.45;;
69625;SDS011;56847;51.984;5.088;2022-12-18T11:38:25;27.98;;;15.68;;
69625;SDS011;56847;51.984;5.088;2022-12-18T11:40:58;26.98;;;15.10;;
69625;SDS011;56847;51.984;5.088;2022-12-18T11:43:32;29.10;;;15.55;;
69625;SDS011;56847;51.984;5.088;2022-12-18T11:46:09;30.23;;;15.33;;
69625;SDS011;56847;51.984;5.088;2022-12-18T11:51:20;25.33;;;15.10;;
69625;SDS011;56847;51.984;5.088;2022-12-18T11:53:54;31.05;;;15.48;;
69625;SDS011;56847;51.984;5.088;2022-12-18T11:56:36;29.10;;;15.98;;
69625;SDS011;56847;51.984;5.088;2022-12-18T12:07:48;27.60;;;14.90;;
69625;SDS011;56847;51.984;5.088;2022-12-18T12:13:22;27.43;;;14.13;;
69625;SDS011;56847;51.984;5.088;2022-12-18T12:23:34;31.63;;;15.80;;
69625;SDS011;56847;51.984;5.088;2022-12-18T12:26:23;25.00;;;14.93;;
69625;SDS011;56847;51.984;5.088;2022-12-18T12:29:01;29.33;;;14.93;;
69625;SDS011;56847;51.984;5.088;2022-12-18T12:34:34;24.90;;;14.25;;
69625;SDS011;56847;51.984;5.088;2022-12-18T12:39:43;29.57;;;16.43;;
69625;SDS011;56847;51.984;5.088;2022-12-18T12:42:15;28.85;;;15.82;;
69625;SDS011;56847;51.984;5.088;2022-12-18T12:45:30;28.63;;;15.55;;
69625;SDS011;56847;51.984;5.088;2022-12-18T12:48:03;30.02;;;16.55;;
69625;SDS011;56847;51.984;5.088;2022-12-18T12:50:34;30.10;;;16.33;;
69625;SDS011;56847;51.984;5.088;2022-12-18T12:53:06;26.73;;;14.93;;
69625;SDS011;56847;51.984;5.088;2022-12-18T12:55:41;29.40;;;15.77;;
69625;SDS011;56847;51.984;5.088;2022-12-18T12:58:26;28.80;;;17.17;;
69625;SDS011;56847;51.984;5.088;2022-12-18T13:06:43;28.20;;;16.03;;
69625;SDS011;56847;51.984;5.088;2022-12-18T13:09:20;27.27;;;14.65;;
69625;SDS011;56847;51.984;5.088;2022-12-18T13:11:47;26.17;;;14.13;;
69625;SDS011;56847;51.984;5.088;2022-12-18T13:14:37;29.48;;;14.20;;
69625;SDS011;56847;51.984;5.088;2022-12-18T13:19:52;24.03;;;12.37;;
69625;SDS011;56847;51.984;5.088;2022-12-18T13:22:36;25.50;;;15.20;;
69625;SDS011;56847;51.984;5.088;2022-12-18T13:25:26;26.77;;;15.75;;
69625;SDS011;56847;51.984;5.088;2022-12-18T13:28:15;26.25;;;14.95;;
69625;SDS011;56847;51.984;5.088;2022-12-18T13:36:33;27.98;;;14.63;;
69625;SDS011;56847;51.984;5.088;2022-12-18T13:39:11;31.95;;;16.92;;
69625;SDS011;56847;51.984;5.088;2022-12-18T13:44:35;32.92;;;17.50;;
69625;SDS011;56847;51.984;5.088;2022-12-18T13:47:27;24.77;;;14.43;;
69625;SDS011;56847;51.984;5.088;2022-12-18T13:50:03;30.45;;;16.65;;
69625;SDS011;56847;51.984;5.088;2022-12-18T13:52:50;29.85;;;16.08;;
69625;SDS011;56847;51.984;5.088;2022-12-18T13:55:19;25.65;;;14.10;;
69625;SDS011;56847;51.984;5.088;2022-12-18T13:57:48;28.00;;;15.88;;
69625;SDS011;56847;51.984;5.088;2022-12-18T14:00:29;32.47;;;16.13;;
69625;SDS011;56847;51.984;5.088;2022-12-18T14:02:57;26.20;;;15.07;;
69625;SDS011;56847;51.984;5.088;2022-12-18T14:08:03;25.02;;;14.40;;
69625;SDS011;56847;51.984;5.088;2022-12-18T14:10:34;30.50;;;14.75;;
69625;SDS011;56847;51.984;5.088;2022-12-18T14:13:24;26.67;;;15.87;;
69625;SDS011;56847;51.984;5.088;2022-12-18T14:15:55;32.30;;;15.82;;
69625;SDS011;56847;51.984;5.088;2022-12-18T14:21:05;27.80;;;14.98;;
69625;SDS011;56847;51.984;5.088;2022-12-18T14:26:03;25.47;;;14.57;;
69625;SDS011;56847;51.984;5.088;2022-12-18T14:28:46;30.05;;;15.65;;
69625;SDS011;56847;51.984;5.088;2022-12-18T14:32:03;30.42;;;16.33;;
69625;SDS011;56847;51.984;5.088;2022-12-18T14:34:04;28.98;;;15.50;;
69625;SDS011;56847;51.984;5.088;2022-12-18T14:36:33;26.98;;;15.07;;
69625;SDS011;56847;51.984;5.088;2022-12-18T14:39:00;35.07;;;16.43;;
69625;SDS011;56847;51.984;5.088;2022-12-18T14:41:26;24.95;;;14.85;;
69625;SDS011;56847;51.984;5.088;2022-12-18T14:43:54;31.20;;;17.08;;
69625;SDS011;56847;51.984;5.088;2022-12-18T14:46:35;29.75;;;15.82;;
69625;SDS011;56847;51.984;5.088;2022-12-18T14:49:23;29.65;;;15.73;;
69625;SDS011;56847;51.984;5.088;2022-12-18T14:52:01;37.13;;;15.10;;
69625;SDS011;56847;51.984;5.088;2022-12-18T14:54:51;29.73;;;15.65;;
69625;SDS011;56847;51.984;5.088;2022-12-18T14:57:22;31.73;;;17.15;;
69625;SDS011;56847;51.984;5.088;2022-12-18T14:59:51;27.73;;;15.45;;
69625;SDS011;56847;51.984;5.088;2022-12-18T15:02:22;30.35;;;16.30;;
69625;SDS011;56847;51.984;5.088;2022-12-18T15:05:04;32.77;;;15.77;;
69625;SDS011;56847;51.984;5.088;2022-12-18T15:07:48;31.52;;;16.48;;
69625;SDS011;56847;51.984;5.088;2022-12-18T15:10:21;27.60;;;15.90;;
69625;SDS011;56847;51.984;5.088;2022-12-18T15:18:16;31.17;;;16.33;;
69625;SDS011;56847;51.984;5.088;2022-12-18T15:20:50;29.00;;;15.90;;
69625;SDS011;56847;51.984;5.088;2022-12-18T15:23:45;34.97;;;16.77;;
69625;SDS011;56847;51.984;5.088;2022-12-18T15:26:17;27.95;;;15.90;;
69625;SDS011;56847;51.984;5.088;2022-12-18T15:28:47;25.00;;;14.68;;
69625;SDS011;56847;51.984;5.088;2022-12-18T15:31:23;31.57;;;16.33;;
69625;SDS011;56847;51.984;5.088;2022-12-18T15:34:20;30.92;;;16.95;;
69625;SDS011;56847;51.984;5.088;2022-12-18T15:36:49;33.13;;;17.33;;
69625;SDS011;56847;51.984;5.088;2022-12-18T15:39:17;34.42;;;16.35;;
69625;SDS011;56847;51.984;5.088;2022-12-18T15:41:44;29.50;;;15.50;;
69625;SDS011;56847;51.984;5.088;2022-12-18T15:44:31;27.27;;;16.77;;
69625;SDS011;56847;51.984;5.088;2022-12-18T15:47:01;27.67;;;15.65;;
69625;SDS011;56847;51.984;5.088;2022-12-18T15:49:29;38.22;;;17.30;;
69625;SDS011;56847;51.984;5.088;2022-12-18T15:51:59;30.23;;;15.90;;
69625;SDS011;56847;51.984;5.088;2022-12-18T15:54:28;32.00;;;15.93;;
69625;SDS011;56847;51.984;5.088;2022-12-18T15:57:13;30.00;;;15.47;;
69625;SDS011;56847;51.984;5.088;2022-12-18T15:59:55;31.58;;;17.45;;
69625;SDS011;56847;51.984;5.088;2022-12-18T16:02:24;28.25;;;16.58;;
69625;SDS011;56847;51.984;5.088;2022-12-18T16:04:55;31.15;;;16.38;;
69625;SDS011;56847;51.984;5.088;2022-12-18T16:07:22;30.98;;;16.35;;
69625;SDS011;56847;51.984;5.088;2022-12-18T16:09:55;33.47;;;17.67;;
69625;SDS011;56847;51.984;5.088;2022-12-18T16:12:24;31.35;;;16.38;;
69625;SDS011;56847;51.984;5.088;2022-12-18T16:14:52;28.40;;;17.17;;
69625;SDS011;56847;51.984;5.088;2022-12-18T16:17:19;34.15;;;17.88;;
69625;SDS011;56847;51.984;5.088;2022-12-18T16:19:46;32.55;;;17.60;;
69625;SDS011;56847;51.984;5.088;2022-12-18T16:22:47;33.23;;;17.73;;
69625;SDS011;56847;51.984;5.088;2022-12-18T16:25:10;31.10;;;16.15;;
69625;SDS011;56847;51.984;5.088;2022-12-18T16:27:45;33.05;;;16.55;;
69625;SDS011;56847;51.984;5.088;2022-12-18T16:30:18;30.27;;;16.08;;
69625;SDS011;56847;51.984;5.088;2022-12-18T16:32:56;39.25;;;18.17;;
69625;SDS011;56847;51.984;5.088;2022-12-18T16:35:25;30.70;;;16.43;;
69625;SDS011;56847;51.984;5.088;2022-12-18T16:37:53;34.85;;;16.27;;
69625;SDS011;56847;51.984;5.088;2022-12-18T16:40:20;33.80;;;17.45;;
69625;SDS011;56847;51.984;5.088;2022-12-18T16:42:47;28.67;;;16.58;;
69625;SDS011;56847;51.984;5.088;2022-12-18T16:45:17;30.02;;;17.27;;
69625;SDS011;56847;51.984;5.088;2022-12-18T16:47:44;32.43;;;16.90;;
69625;SDS011;56847;51.984;5.088;2022-12-18T16:50:11;30.20;;;16.20;;
69625;SDS011;56847;51.984;5.088;2022-12-18T16:52:39;30.83;;;16.27;;
69625;SDS011;56847;51.984;5.088;2022-12-18T16:55:06;31.20;;;16.42;;
69625;SDS011;56847;51.984;5.088;2022-12-18T16:57:34;30.58;;;16.52;;
69625;SDS011;56847;51.984;5.088;2022-12-18T17:00:02;32.63;;;16.43;;
69625;SDS011;56847;51.984;5.088;2022-12-18T17:02:31;31.25;;;16.90;;
69625;SDS011;56847;51.984;5.088;2022-12-18T17:04:59;31.42;;;16.30;;
69625;SDS011;56847;51.984;5.088;2022-12-18T17:07:27;29.25;;;16.52;;
69625;SDS011;56847;51.984;5.088;2022-12-18T17:09:54;32.80;;;16.73;;
69625;SDS011;56847;51.984;5.088;2022-12-18T17:12:22;30.00;;;16.10;;
69625;SDS011;56847;51.984;5.088;2022-12-18T17:14:49;31.77;;;14.63;;
69625;SDS011;56847;51.984;5.088;2022-12-18T17:17:16;28.17;;;16.20;;
69625;SDS011;56847;51.984;5.088;2022-12-18T17:19:48;32.35;;;16.50;;
69625;SDS011;56847;51.984;5.088;2022-12-18T17:22:16;32.22;;;15.90;;
69625;SDS011;56847;51.984;5.088;2022-12-18T17:24:46;34.97;;;16.47;;
69625;SDS011;56847;51.984;5.088;2022-12-18T17:27:13;33.45;;;16.95;;
69625;SDS011;56847;51.984;5.088;2022-12-18T17:29:41;33.13;;;17.75;;
69625;SDS011;56847;51.984;5.088;2022-12-18T17:32:13;32.25;;;15.95;;
69625;SDS011;56847;51.984;5.088;2022-12-18T17:34:40;39.60;;;17.60;;
69625;SDS011;56847;51.984;5.088;2022-12-18T17:37:07;36.47;;;17.13;;
69625;SDS011;56847;51.984;5.088;2022-12-18T17:39:34;34.42;;;17.00;;
69625;SDS011;56847;51.984;5.088;2022-12-18T17:42:01;32.20;;;16.92;;
69625;SDS011;56847;51.984;5.088;2022-12-18T17:44:30;29.13;;;16.30;;
69625;SDS011;56847;51.984;5.088;2022-12-18T17:46:58;33.65;;;17.08;;
69625;SDS011;56847;51.984;5.088;2022-12-18T17:49:26;31.03;;;16.07;;
69625;SDS011;56847;51.984;5.088;2022-12-18T17:51:54;35.70;;;16.85;;
69625;SDS011;56847;51.984;5.088;2022-12-18T17:54:20;30.63;;;17.33;;
69625;SDS011;56847;51.984;5.088;2022-12-18T17:56:48;36.63;;;17.10;;
69625;SDS011;56847;51.984;5.088;2022-12-18T17:59:15;32.28;;;17.73;;
69625;SDS011;56847;51.984;5.088;2022-12-18T18:01:42;33.30;;;17.10;;
69625;SDS011;56847;51.984;5.088;2022-12-18T18:04:10;31.85;;;16.77;;
69625;SDS011;56847;51.984;5.088;2022-12-18T18:06:38;33.42;;;16.65;;
69625;SDS011;56847;51.984;5.088;2022-12-18T18:09:05;35.67;;;16.42;;
69625;SDS011;56847;51.984;5.088;2022-12-18T18:11:42;29.67;;;16.00;;
69625;SDS011;56847;51.984;5.088;2022-12-18T18:14:28;34.30;;;16.83;;
69625;SDS011;56847;51.984;5.088;2022-12-18T18:16:59;34.67;;;16.50;;
69625;SDS011;56847;51.984;5.088;2022-12-18T18:19:30;36.65;;;17.60;;
69625;SDS011;56847;51.984;5.088;2022-12-18T18:22:01;32.65;;;15.73;;
69625;SDS011;56847;51.984;5.088;2022-12-18T18:24:29;33.45;;;17.15;;
69625;SDS011;56847;51.984;5.088;2022-12-18T18:26:58;35.10;;;17.83;;
69625;SDS011;56847;51.984;5.088;2022-12-18T18:29:26;31.40;;;17.75;;
69625;SDS011;56847;51.984;5.088;2022-12-18T18:31:56;33.88;;;17.67;;
69625;SDS011;56847;51.984;5.088;2022-12-18T18:34:25;31.17;;;16.92;;
69625;SDS011;56847;51.984;5.088;2022-12-18T18:36:54;35.95;;;18.65;;
69625;SDS011;56847;51.984;5.088;2022-12-18T18:39:21;29.70;;;16.43;;
69625;SDS011;56847;51.984;5.088;2022-12-18T18:41:48;41.45;;;19.13;;
69625;SDS011;56847;51.984;5.088;2022-12-18T18:44:16;33.67;;;17.50;;
69625;SDS011;56847;51.984;5.088;2022-12-18T18:46:52;33.28;;;17.58;;
69625;SDS011;56847;51.984;5.088;2022-12-18T18:49:21;32.78;;;17.42;;
69625;SDS011;56847;51.984;5.088;2022-12-18T18:51:49;33.33;;;17.30;;
69625;SDS011;56847;51.984;5.088;2022-12-18T18:54:16;28.98;;;15.85;;
69625;SDS011;56847;51.984;5.088;2022-12-18T18:56:43;31.42;;;17.95;;
69625;SDS011;56847;51.984;5.088;2022-12-18T18:59:31;39.80;;;16.30;;
69625;SDS011;56847;51.984;5.088;2022-12-18T19:01:59;29.23;;;17.02;;
69625;SDS011;56847;51.984;5.088;2022-12-18T19:04:31;33.37;;;16.93;;
69625;SDS011;56847;51.984;5.088;2022-12-18T19:06:59;39.97;;;17.83;;
69625;SDS011;56847;51.984;5.088;2022-12-18T19:09:26;31.27;;;17.05;;
69625;SDS011;56847;51.984;5.088;2022-12-18T19:11:54;36.13;;;19.30;;
69625;SDS011;56847;51.984;5.088;2022-12-18T19:14:40;36.33;;;18.00;;
69625;SDS011;56847;51.984;5.088;2022-12-18T19:17:08;34.73;;;17.57;;
69625;SDS011;56847;51.984;5.088;2022-12-18T19:19:35;31.17;;;18.13;;
69625;SDS011;56847;51.984;5.088;2022-12-18T19:22:03;36.30;;;18.38;;